createdAt,value
2023-04-13T00:00:28.064Z,21.27
2023-04-13T00:03:19.214Z,21.10
2023-04-13T00:06:00.001Z,20.92
2023-04-13T00:08:49.017Z,21.15
2023-04-13T00:11:22.139Z,20.73
2023-04-13T00:14:09.026Z,21.58
2023-04-13T00:16:42.421Z,19.83
2023-04-13T00:19:29.103Z,20.17
2023-04-13T00:22:04.226Z,19.58
2023-04-13T00:24:51.006Z,19.80
2023-04-13T00:27:26.706Z,22.38
2023-04-13T00:30:18.009Z,21.55
2023-04-13T00:32:52.152Z,22.75
2023-04-13T00:35:39.001Z,22.08
2023-04-13T00:38:12.087Z,23.13
2023-04-13T00:40:58.989Z,24.38
2023-04-13T00:43:39.070Z,23.77
2023-04-13T00:46:33.039Z,24.27
2023-04-13T00:49:22.027Z,24.25
2023-04-13T00:51:55.206Z,23.02
2023-04-13T00:54:42.008Z,26.20
2023-04-13T00:57:15.162Z,24.95
2023-04-13T01:00:13.000Z,24.55
2023-04-13T01:03:08.370Z,25.35
2023-04-13T01:06:12.997Z,24.98
2023-04-13T01:08:54.180Z,25.15
2023-04-13T01:12:14.984Z,25.92
2023-04-13T01:15:15.042Z,24.13
2023-04-13T01:18:05.048Z,24.55
2023-04-13T01:20:47.056Z,24.70
2023-04-13T01:24:03.013Z,26.13
2023-04-13T01:27:04.020Z,27.65
2023-04-13T01:29:38.325Z,27.08
2023-04-13T01:32:25.002Z,26.05
2023-04-13T01:35:05.031Z,27.60
2023-04-13T01:38:00.007Z,28.80
2023-04-13T01:40:51.023Z,29.42
2023-04-13T01:43:26.195Z,27.80
2023-04-13T01:46:23.056Z,27.80
2023-04-13T01:49:04.084Z,26.45
2023-04-13T01:51:51.999Z,27.00
2023-04-13T01:54:29.133Z,27.90
2023-04-13T01:57:17.030Z,28.80
2023-04-13T01:59:50.168Z,28.30
2023-04-13T02:02:37.229Z,28.15
2023-04-13T02:05:27.508Z,23.45
2023-04-13T02:08:16.092Z,26.45
2023-04-13T02:10:56.015Z,26.08
2023-04-13T02:13:50.038Z,24.90
2023-04-13T02:16:37.114Z,25.13
2023-04-13T02:19:17.167Z,24.90
2023-04-13T02:22:04.077Z,26.60
2023-04-13T02:24:37.117Z,26.15
2023-04-13T02:27:24.077Z,26.33
2023-04-13T02:30:04.054Z,26.90
2023-04-13T02:33:00.209Z,25.92
2023-04-13T02:35:54.039Z,24.45
2023-04-13T02:38:44.060Z,25.33
2023-04-13T02:41:31.029Z,25.98
2023-04-13T02:44:25.023Z,25.40
2023-04-13T02:47:13.045Z,27.27
2023-04-13T02:49:51.573Z,26.27
2023-04-13T02:52:38.057Z,26.02
2023-04-13T02:55:19.061Z,25.17
2023-04-13T02:58:13.053Z,24.83
2023-04-13T03:01:07.062Z,24.10
2023-04-13T03:04:01.311Z,24.83
2023-04-13T03:06:56.059Z,24.75
2023-04-13T03:09:50.039Z,24.70
2023-04-13T03:12:23.138Z,26.67
2023-04-13T03:15:14.051Z,24.67
2023-04-13T03:17:54.091Z,24.92
2023-04-13T03:20:48.083Z,24.65
2023-04-13T03:23:36.086Z,25.20
2023-04-13T03:26:09.154Z,25.67
2023-04-13T03:28:58.405Z,23.58
2023-04-13T03:31:31.389Z,23.90
2023-04-13T03:34:18.111Z,24.23
2023-04-13T03:36:51.381Z,23.08
2023-04-13T03:39:31.066Z,24.08
2023-04-13T03:42:11.049Z,24.23
2023-04-13T03:44:44.494Z,24.95
2023-04-13T03:47:31.106Z,23.67
2023-04-13T03:50:04.489Z,23.60
2023-04-13T03:52:51.053Z,23.27
2023-04-13T03:55:24.153Z,24.63
2023-04-13T03:58:11.104Z,23.75
2023-04-13T04:00:58.076Z,22.17
2023-04-13T04:03:45.151Z,24.98
2023-04-13T04:06:18.204Z,27.23
2023-04-13T04:09:05.063Z,25.42
2023-04-13T04:11:38.205Z,25.05
2023-04-13T04:14:26.097Z,22.85
2023-04-13T04:16:59.171Z,23.15
2023-04-13T04:19:46.077Z,21.88
2023-04-13T04:22:19.150Z,24.20
2023-04-13T04:25:06.109Z,22.40
2023-04-13T04:27:39.198Z,22.30
2023-04-13T04:30:28.086Z,24.38
2023-04-13T04:33:08.088Z,22.42
2023-04-13T04:35:59.096Z,21.15
2023-04-13T04:38:39.075Z,23.33
2023-04-13T04:41:33.071Z,26.25
2023-04-13T04:44:23.082Z,22.77
2023-04-13T04:46:56.180Z,21.98
2023-04-13T04:49:43.087Z,20.17
2023-04-13T04:52:25.057Z,21.45
2023-04-13T04:55:20.093Z,21.80
2023-04-13T04:58:14.082Z,20.05
2023-04-13T05:01:08.115Z,20.10
2023-04-13T05:03:55.122Z,19.08
2023-04-13T05:06:33.487Z,22.60
2023-04-13T05:09:21.104Z,20.02
2023-04-13T05:11:54.225Z,21.75
2023-04-13T05:14:41.099Z,21.40
2023-04-13T05:17:24.157Z,21.65
2023-04-13T05:20:13.075Z,21.05
2023-04-13T05:22:46.225Z,20.15
2023-04-13T05:25:34.086Z,21.80
2023-04-13T05:28:14.093Z,20.17
2023-04-13T05:31:08.106Z,20.50
2023-04-13T05:33:56.078Z,20.27
2023-04-13T05:36:36.096Z,21.35
2023-04-13T05:39:23.109Z,20.15
2023-04-13T05:41:56.292Z,19.83
2023-04-13T05:44:43.102Z,17.40
2023-04-13T05:47:23.163Z,18.90
2023-04-13T05:50:10.123Z,18.80
2023-04-13T05:52:43.264Z,17.70
2023-04-13T05:55:31.117Z,18.73
2023-04-13T05:58:04.198Z,16.50
2023-04-13T06:01:04.142Z,17.36
2023-04-13T06:03:51.330Z,19.10
2023-04-13T06:06:27.601Z,20.48
2023-04-13T06:09:15.107Z,17.15
2023-04-13T06:11:48.217Z,14.80
2023-04-13T06:14:35.159Z,16.25
2023-04-13T06:17:08.501Z,17.80
2023-04-13T06:19:55.123Z,19.63
2023-04-13T06:22:35.105Z,20.17
2023-04-13T06:25:23.118Z,18.77
2023-04-13T06:28:03.125Z,18.08
2023-04-13T06:30:57.212Z,18.17
2023-04-13T06:33:51.119Z,18.02
2023-04-13T06:36:38.124Z,17.50
2023-04-13T06:39:11.673Z,16.88
2023-04-13T06:41:58.137Z,17.98
2023-04-13T06:44:38.105Z,17.90
2023-04-13T06:47:32.167Z,19.77
2023-04-13T06:50:27.118Z,18.67
2023-04-13T06:53:21.133Z,19.02
2023-04-13T06:56:15.158Z,18.70
2023-04-13T06:59:06.329Z,19.10
2023-04-13T07:01:39.248Z,18.80
2023-04-13T07:04:29.081Z,21.73
2023-04-13T07:07:04.282Z,17.65
2023-04-13T07:09:51.134Z,18.45
2023-04-13T07:12:31.151Z,18.65
2023-04-13T07:15:18.136Z,18.17
2023-04-13T07:17:59.208Z,15.88
2023-04-13T07:20:46.143Z,18.30
2023-04-13T07:23:26.144Z,17.65
2023-04-13T07:26:20.156Z,15.90
2023-04-13T07:29:07.168Z,17.50
2023-04-13T07:31:40.408Z,18.35
2023-04-13T07:34:28.140Z,17.65
2023-04-13T07:37:08.154Z,16.63
2023-04-13T07:39:55.181Z,17.48
2023-04-13T07:42:28.234Z,15.95
2023-04-13T07:45:17.176Z,16.35
2023-04-13T07:47:50.712Z,16.83
2023-04-13T07:50:37.145Z,16.80
2023-04-13T07:53:10.314Z,15.68
2023-04-13T07:55:57.129Z,18.90
2023-04-13T07:58:30.352Z,17.88
2023-04-13T08:01:24.151Z,14.85
2023-04-13T08:04:11.243Z,18.58
2023-04-13T08:06:44.271Z,16.20
2023-04-13T08:09:31.157Z,18.92
2023-04-13T08:12:04.281Z,16.42
2023-04-13T08:14:51.164Z,16.73
2023-04-13T08:17:24.372Z,16.90
2023-04-13T08:20:15.187Z,18.27
2023-04-13T08:22:48.260Z,16.25
2023-04-13T08:25:35.175Z,19.23
2023-04-13T08:28:09.634Z,16.40
2023-04-13T08:30:56.196Z,14.70
2023-04-13T08:33:29.282Z,15.02
2023-04-13T08:36:16.183Z,15.45
2023-04-13T08:38:49.298Z,15.43
2023-04-13T08:41:38.187Z,15.35
2023-04-13T08:44:13.590Z,17.02
2023-04-13T08:47:00.170Z,14.95
2023-04-13T08:49:41.186Z,16.02
2023-04-13T08:52:28.265Z,16.27
2023-04-13T08:55:05.808Z,15.95
2023-04-13T08:57:55.180Z,16.23
2023-04-13T09:00:30.055Z,17.88
2023-04-13T09:03:19.332Z,15.88
2023-04-13T09:06:06.182Z,15.07
2023-04-13T09:09:00.501Z,15.85
2023-04-13T09:11:50.139Z,16.05
2023-04-13T09:14:32.167Z,16.75
2023-04-13T09:17:32.255Z,15.70
2023-04-13T09:20:37.870Z,16.02
2023-04-13T09:23:24.197Z,14.52
2023-04-13T09:26:17.189Z,16.48
2023-04-13T09:29:04.204Z,14.02
2023-04-13T09:31:47.233Z,16.10
2023-04-13T09:34:42.186Z,15.35
2023-04-13T09:37:36.219Z,14.35
2023-04-13T09:40:25.193Z,13.93
2023-04-13T09:43:02.404Z,14.38
2023-04-13T09:45:53.249Z,15.23
2023-04-13T09:48:28.369Z,16.65
2023-04-13T09:51:16.223Z,13.88
2023-04-13T09:53:51.450Z,14.18
2023-04-13T09:56:53.245Z,15.27
2023-04-13T09:59:30.313Z,16.27
2023-04-13T10:02:25.335Z,13.35
2023-04-13T10:05:13.242Z,14.15
2023-04-13T10:07:56.242Z,16.38
2023-04-13T10:10:51.212Z,14.63
2023-04-13T10:13:50.206Z,15.43
2023-04-13T10:17:03.227Z,14.05
2023-04-13T10:19:43.295Z,12.93
2023-04-13T10:22:30.234Z,16.17
2023-04-13T10:25:03.314Z,17.65
2023-04-13T10:27:50.245Z,15.43
2023-04-13T10:30:24.327Z,14.00
2023-04-13T10:33:17.243Z,16.05
2023-04-13T10:36:04.952Z,13.65
2023-04-13T10:38:53.233Z,13.07
2023-04-13T10:41:31.330Z,14.00
2023-04-13T10:44:18.234Z,15.23
2023-04-13T10:46:59.251Z,14.02
2023-04-13T10:49:47.240Z,14.18
2023-04-13T10:52:21.600Z,14.45
2023-04-13T10:55:09.309Z,17.30
2023-04-13T10:57:49.236Z,15.13
2023-04-13T11:00:46.445Z,15.35
2023-04-13T11:03:56.817Z,16.17
2023-04-13T11:06:58.271Z,15.18
2023-04-13T11:09:48.270Z,15.57
2023-04-13T11:12:21.537Z,14.60
2023-04-13T11:15:08.292Z,14.68
2023-04-13T11:17:41.420Z,14.48
2023-04-13T11:20:48.267Z,15.18
2023-04-13T11:23:24.006Z,13.85
2023-04-13T11:26:12.302Z,15.45
2023-04-13T11:28:55.279Z,16.02
2023-04-13T11:31:46.291Z,14.50
2023-04-13T11:34:19.374Z,16.20
2023-04-13T11:37:08.250Z,14.95
2023-04-13T11:39:50.284Z,12.98
2023-04-13T11:42:45.274Z,14.88
2023-04-13T11:45:34.289Z,17.60
2023-04-13T11:48:15.270Z,14.00
2023-04-13T11:51:18.273Z,14.02
2023-04-13T11:54:13.278Z,13.38
2023-04-13T11:57:01.303Z,15.70
2023-04-13T11:59:34.365Z,14.82
2023-04-13T12:02:29.857Z,14.75
2023-04-13T12:05:34.710Z,14.75
2023-04-13T12:08:15.591Z,12.98
2023-04-13T12:11:39.403Z,15.38
2023-04-13T12:14:10.276Z,14.35
2023-04-13T12:19:43.802Z,14.40
2023-04-13T12:22:57.547Z,14.05
2023-04-13T12:25:54.551Z,12.82
2023-04-13T12:28:43.288Z,13.18
2023-04-13T12:31:17.487Z,15.07
2023-04-13T12:34:04.300Z,13.30
2023-04-13T12:36:37.471Z,12.55
2023-04-13T12:39:24.304Z,13.25
2023-04-13T12:41:57.716Z,15.93
2023-04-13T12:44:44.314Z,12.73
2023-04-13T12:47:17.599Z,13.35
2023-04-13T12:50:04.299Z,15.10
2023-04-13T12:52:44.311Z,15.20
2023-04-13T12:55:38.341Z,14.65
2023-04-13T12:58:25.315Z,13.52
2023-04-13T13:00:58.518Z,13.05
2023-04-13T13:03:45.442Z,12.05
2023-04-13T13:06:18.419Z,12.45
2023-04-13T13:09:05.338Z,12.40
2023-04-13T13:11:45.327Z,12.63
2023-04-13T13:14:39.323Z,12.05
2023-04-13T13:17:26.378Z,12.45
2023-04-13T13:20:00.575Z,12.10
2023-04-13T13:22:49.299Z,12.45
2023-04-13T13:25:29.314Z,13.32
2023-04-13T13:28:23.316Z,12.93
2023-04-13T13:31:10.324Z,14.15
2023-04-13T13:33:43.568Z,13.68
2023-04-13T13:36:30.336Z,13.88
2023-04-13T13:39:05.297Z,12.95
2023-04-13T13:41:52.314Z,14.30
2023-04-13T13:44:33.776Z,15.10
2023-04-13T13:47:28.429Z,12.55
2023-04-13T13:50:22.347Z,12.93
2023-04-13T13:53:09.334Z,11.65
2023-04-13T13:55:42.481Z,12.35
2023-04-13T13:58:29.342Z,12.35
2023-04-13T14:01:09.486Z,13.27
2023-04-13T14:04:03.437Z,13.55
2023-04-13T14:06:50.344Z,12.63
2023-04-13T14:09:31.360Z,13.48
2023-04-13T14:12:25.346Z,12.20
2023-04-13T14:15:16.366Z,12.52
2023-04-13T14:18:02.576Z,13.70
2023-04-13T14:20:57.343Z,13.07
2023-04-13T14:23:37.386Z,12.25
2023-04-13T14:26:31.351Z,13.25
2023-04-13T14:29:18.394Z,12.73
2023-04-13T14:32:01.353Z,13.07
2023-04-13T14:34:55.360Z,13.85
2023-04-13T14:37:43.361Z,12.30
2023-04-13T14:40:21.754Z,13.55
2023-04-13T14:43:09.357Z,13.57
2023-04-13T14:45:42.451Z,13.23
2023-04-13T14:48:29.373Z,14.13
2023-04-13T14:51:02.474Z,13.07
2023-04-13T14:53:49.383Z,12.77
2023-04-13T14:56:23.883Z,13.45
2023-04-13T14:59:10.367Z,13.18
2023-04-13T15:01:50.460Z,13.00
2023-04-13T15:04:44.482Z,12.88
2023-04-13T15:07:36.409Z,12.63
2023-04-13T15:10:09.524Z,13.68
2023-04-13T15:12:56.370Z,13.77
2023-04-13T15:15:36.473Z,13.52
2023-04-13T15:18:30.363Z,13.60
2023-04-13T15:21:17.400Z,12.07
2023-04-13T15:23:57.385Z,12.02
2023-04-13T15:26:47.392Z,12.57
2023-04-13T15:29:20.812Z,14.00
2023-04-13T15:32:08.495Z,13.30
2023-04-13T15:34:41.490Z,12.30
2023-04-13T15:37:32.416Z,12.70
2023-04-13T15:40:07.693Z,12.90
2023-04-13T15:42:55.386Z,11.50
2023-04-13T15:45:35.474Z,12.32
2023-04-13T15:48:22.419Z,11.55
2023-04-13T15:51:10.427Z,13.45
2023-04-13T15:54:04.423Z,11.85
2023-04-13T15:56:51.392Z,12.23
2023-04-13T15:59:26.785Z,13.23
2023-04-13T16:02:20.429Z,12.70
2023-04-13T16:05:14.407Z,11.82
2023-04-13T16:08:05.408Z,11.85
2023-04-13T16:10:41.612Z,12.48
2023-04-13T16:13:37.582Z,13.48
2023-04-13T16:16:20.962Z,13.07
2023-04-13T16:19:07.423Z,12.70
2023-04-13T16:21:43.393Z,12.57
2023-04-13T16:24:30.393Z,12.60
2023-04-13T16:27:03.547Z,13.63
2023-04-13T16:29:50.415Z,12.20
2023-04-13T16:32:30.442Z,11.25
2023-04-13T16:35:18.414Z,11.55
2023-04-13T16:37:58.408Z,14.32
2023-04-13T16:40:52.427Z,17.08
2023-04-13T16:43:46.401Z,13.07
2023-04-13T16:46:33.565Z,12.27
2023-04-13T16:49:06.538Z,11.13
2023-04-13T16:51:54.456Z,11.90
2023-04-13T16:54:27.624Z,12.10
2023-04-13T16:57:14.432Z,12.05
2023-04-13T16:59:47.535Z,13.80
2023-04-13T17:02:41.509Z,12.65
2023-04-13T17:05:35.427Z,15.23
2023-04-13T17:08:29.421Z,14.38
2023-04-13T17:11:23.445Z,14.00
2023-04-13T17:14:10.424Z,14.30
2023-04-13T17:16:43.696Z,14.45
2023-04-13T17:19:30.490Z,13.30
2023-04-13T17:22:03.530Z,11.88
2023-04-13T17:24:50.439Z,11.77
2023-04-13T17:27:23.533Z,10.88
2023-04-13T17:30:10.430Z,10.63
2023-04-13T17:32:43.693Z,11.13
2023-04-13T17:35:30.435Z,12.35
2023-04-13T17:38:03.552Z,11.43
2023-04-13T17:40:51.443Z,12.32
2023-04-13T17:43:24.534Z,13.18
2023-04-13T17:46:11.494Z,12.52
2023-04-13T17:48:45.544Z,13.55
2023-04-13T17:51:32.468Z,15.70
2023-04-13T17:54:07.830Z,17.90
2023-04-13T17:56:54.478Z,17.75
2023-04-13T17:59:27.553Z,20.63
2023-04-13T18:02:21.525Z,17.25
2023-04-13T18:05:21.462Z,16.05
2023-04-13T18:08:08.446Z,15.90
2023-04-13T18:10:41.578Z,14.20
2023-04-13T18:13:28.487Z,16.75
2023-04-13T18:16:02.748Z,14.38
2023-04-13T18:18:49.461Z,15.43
2023-04-13T18:21:22.550Z,21.77
2023-04-13T18:24:09.522Z,21.58
2023-04-13T18:26:49.526Z,17.02
2023-04-13T18:29:43.471Z,15.88
2023-04-13T18:32:30.501Z,15.00
2023-04-13T18:35:04.714Z,15.90
2023-04-13T18:37:51.493Z,14.90
2023-04-13T18:40:24.573Z,15.85
2023-04-13T18:43:11.483Z,17.55
2023-04-13T18:45:45.581Z,20.55
2023-04-13T18:48:32.509Z,19.88
2023-04-13T18:51:16.491Z,20.15
2023-04-13T18:54:10.490Z,19.42
2023-04-13T18:56:57.500Z,21.00
2023-04-13T18:59:30.671Z,22.17
2023-04-13T19:02:18.592Z,21.27
2023-04-13T19:05:13.553Z,22.02
2023-04-13T19:08:04.490Z,21.85
2023-04-13T19:10:44.520Z,22.55
2023-04-13T19:13:31.487Z,24.13
2023-04-13T19:16:11.527Z,24.35
2023-04-13T19:18:58.864Z,25.38
2023-04-13T19:21:39.484Z,24.85
2023-04-13T19:24:33.491Z,24.92
2023-04-13T19:27:21.476Z,22.10
2023-04-13T19:30:01.533Z,22.02
2023-04-13T19:33:01.531Z,24.05
2023-04-13T19:35:55.508Z,23.95
2023-04-13T19:38:42.513Z,22.98
2023-04-13T19:41:19.590Z,22.30
2023-04-13T19:44:07.493Z,21.77
2023-04-13T19:46:41.615Z,22.80
2023-04-13T19:49:28.529Z,23.40
2023-04-13T19:52:08.522Z,23.88
2023-04-13T19:55:02.516Z,22.98
2023-04-13T19:57:49.504Z,23.17
2023-04-13T20:00:22.704Z,21.27
2023-04-13T20:03:09.653Z,20.80
2023-04-13T20:05:42.743Z,20.98
2023-04-13T20:08:30.517Z,19.92
2023-04-13T20:11:03.595Z,20.50
2023-04-13T20:13:52.511Z,22.17
2023-04-13T20:16:26.532Z,22.63
2023-04-13T20:19:15.492Z,20.60
2023-04-13T20:21:51.318Z,20.10
2023-04-13T20:24:38.499Z,20.85
2023-04-13T20:27:11.684Z,19.90
2023-04-13T20:29:58.537Z,21.70
2023-04-13T20:32:31.638Z,20.48
2023-04-13T20:35:18.541Z,19.13
2023-04-13T20:37:51.764Z,21.50
2023-04-13T20:40:42.550Z,23.70
2023-04-13T20:43:17.822Z,19.45
2023-04-13T20:46:04.545Z,20.55
2023-04-13T20:48:49.025Z,19.73
2023-04-13T20:51:42.537Z,22.50
2023-04-13T20:54:29.547Z,22.50
2023-04-13T20:57:09.533Z,21.25
2023-04-13T21:00:03.586Z,22.05
2023-04-13T21:02:59.643Z,24.38
2023-04-13T21:05:53.535Z,23.52
2023-04-13T21:08:47.547Z,25.00
2023-04-13T21:11:34.531Z,25.67
2023-04-13T21:14:07.666Z,24.35
2023-04-13T21:16:47.612Z,25.48
2023-04-13T21:19:28.288Z,25.48
2023-04-13T21:22:07.803Z,22.88
2023-04-13T21:24:47.570Z,22.20
2023-04-13T21:27:22.444Z,22.98
2023-04-13T21:30:09.731Z,21.90
2023-04-13T21:32:49.611Z,23.58
2023-04-13T21:35:43.536Z,21.20
2023-04-13T21:38:30.644Z,24.08
2023-04-13T21:41:06.643Z,22.20
2023-04-13T21:43:53.531Z,20.40
2023-04-13T21:46:27.936Z,21.23
2023-04-13T21:49:14.539Z,21.17
2023-04-13T21:51:47.678Z,22.52
2023-04-13T21:54:34.550Z,21.40
2023-04-13T21:57:07.680Z,18.98
2023-04-13T21:59:54.588Z,18.52
2023-04-13T22:02:27.807Z,18.23
2023-04-13T22:05:15.565Z,17.95
2023-04-13T22:07:48.705Z,18.98
2023-04-13T22:10:35.602Z,18.85
2023-04-13T22:13:15.587Z,17.67
2023-04-13T22:16:09.718Z,17.95
2023-04-13T22:18:56.588Z,16.67
2023-04-13T22:21:29.755Z,16.33
2023-04-13T22:24:16.594Z,16.75
2023-04-13T22:26:49.682Z,16.15
2023-04-13T22:29:36.601Z,17.15
2023-04-13T22:32:16.690Z,17.50
2023-04-13T22:35:10.572Z,17.60
2023-04-13T22:37:57.656Z,16.65
2023-04-13T22:40:31.146Z,18.05
2023-04-13T22:43:17.579Z,16.67
2023-04-13T22:45:57.575Z,15.32
2023-04-13T22:48:44.562Z,15.60
2023-04-13T22:51:24.593Z,16.02
2023-04-13T22:54:11.601Z,16.30
2023-04-13T22:56:51.635Z,15.77
2023-04-13T22:59:45.632Z,18.20
2023-04-13T23:02:32.794Z,17.80
2023-04-13T23:05:06.993Z,20.15
2023-04-13T23:07:53.590Z,18.30
2023-04-13T23:10:27.191Z,21.20
2023-04-13T23:13:13.738Z,20.80
2023-04-13T23:15:46.763Z,17.98
2023-04-13T23:18:34.595Z,17.52
2023-04-13T23:21:15.764Z,17.00
2023-04-13T23:24:02.623Z,17.85
2023-04-13T23:26:35.850Z,18.75
2023-04-13T23:29:22.698Z,17.60
2023-04-13T23:32:02.680Z,20.77
2023-04-13T23:34:49.594Z,19.50
2023-04-13T23:37:29.689Z,19.17
2023-04-13T23:40:23.573Z,16.92
2023-04-13T23:43:10.664Z,17.55
2023-04-13T23:45:44.237Z,17.17
2023-04-13T23:48:31.749Z,18.67
2023-04-13T23:51:04.710Z,16.60
2023-04-13T23:53:51.719Z,17.33
2023-04-13T23:56:24.802Z,19.08
2023-04-13T23:59:11.646Z,17.15
